createdAt,value
2023-03-10T00:03:28.620Z,14.50
2023-03-10T00:07:30.678Z,12.10
2023-03-10T00:11:32.768Z,12.60
2023-03-10T00:15:34.829Z,12.05
2023-03-10T00:19:36.746Z,11.23
2023-03-10T00:23:38.716Z,12.00
2023-03-10T00:27:41.147Z,11.38
2023-03-10T00:31:43.450Z,11.52
2023-03-10T00:35:45.470Z,11.70
2023-03-10T00:39:51.604Z,12.75
2023-03-10T00:43:54.020Z,10.85
2023-03-10T00:47:56.032Z,10.98
2023-03-10T00:51:58.102Z,11.75
2023-03-10T00:56:02.720Z,11.23
2023-03-10T01:00:06.896Z,11.80
2023-03-10T01:04:15.562Z,12.23
2023-03-10T01:12:19.856Z,12.55
2023-03-10T01:16:22.123Z,12.35
2023-03-10T01:20:24.080Z,12.85
2023-03-10T01:24:26.234Z,12.55
2023-03-10T01:28:28.207Z,13.57
2023-03-10T01:32:31.555Z,14.07
2023-03-10T01:36:33.681Z,13.77
2023-03-10T01:40:37.301Z,14.60
2023-03-10T01:44:39.412Z,15.00
2023-03-10T01:48:41.409Z,14.70
2023-03-10T01:52:47.610Z,16.02
2023-03-10T01:56:52.022Z,13.70
2023-03-10T02:00:54.954Z,16.90
2023-03-10T02:04:57.806Z,18.00
2023-03-10T02:09:02.050Z,19.15
2023-03-10T02:13:04.414Z,20.67
2023-03-10T02:17:11.091Z,19.60
2023-03-10T02:21:35.014Z,21.63
2023-03-10T02:25:56.180Z,21.38
2023-03-10T02:30:16.218Z,21.70
2023-03-10T02:34:19.043Z,20.63
2023-03-10T02:38:21.472Z,21.92
2023-03-10T02:42:26.789Z,22.88
2023-03-10T02:46:29.281Z,22.02
2023-03-10T02:50:36.890Z,21.77
2023-03-10T02:54:39.080Z,23.08
2023-03-10T02:58:41.176Z,24.98
2023-03-10T03:02:44.447Z,24.90
2023-03-10T03:06:47.928Z,25.20
2023-03-10T03:10:50.618Z,25.75
2023-03-10T03:14:52.629Z,23.77
2023-03-10T03:18:55.401Z,25.05
2023-03-10T03:22:59.642Z,25.13
2023-03-10T03:27:01.725Z,24.75
2023-03-10T03:31:04.028Z,25.42
2023-03-10T03:35:12.521Z,23.55
2023-03-10T03:39:17.375Z,23.73
2023-03-10T03:43:21.745Z,21.92
2023-03-10T03:47:24.064Z,26.10
2023-03-10T03:51:26.406Z,26.80
2023-03-10T03:55:29.167Z,25.00
2023-03-10T03:59:32.032Z,24.70
2023-03-10T04:03:34.206Z,24.63
2023-03-10T04:07:39.363Z,23.58
2023-03-10T04:11:42.667Z,24.33
2023-03-10T04:15:45.536Z,24.23
2023-03-10T04:20:00.769Z,25.05
2023-03-10T04:24:09.187Z,25.02
2023-03-10T04:28:12.105Z,25.65
2023-03-10T04:32:14.418Z,25.20
2023-03-10T04:36:18.829Z,26.13
2023-03-10T04:40:23.809Z,25.23
2023-03-10T04:44:31.347Z,22.80
2023-03-10T04:48:36.117Z,24.73
2023-03-10T04:52:38.679Z,27.40
2023-03-10T04:56:40.741Z,26.05
2023-03-10T05:00:56.489Z,26.70
2023-03-10T05:05:05.192Z,28.67
2023-03-10T05:09:09.508Z,25.83
2023-03-10T05:13:12.891Z,27.23
2023-03-10T05:17:16.162Z,28.15
2023-03-10T05:21:21.626Z,25.67
2023-03-10T05:25:24.241Z,26.27
2023-03-10T05:29:26.550Z,28.85
2023-03-10T05:33:33.681Z,31.20
2023-03-10T05:37:39.524Z,30.02
2023-03-10T05:41:43.384Z,33.03
2023-03-10T05:45:45.871Z,32.33
2023-03-10T05:49:48.206Z,33.88
2023-03-10T05:53:50.804Z,31.70
2023-03-10T05:57:58.796Z,33.08
2023-03-10T06:02:00.879Z,37.30
2023-03-10T06:06:04.099Z,37.03
2023-03-10T06:10:06.817Z,33.70
2023-03-10T06:14:09.676Z,35.00
2023-03-10T06:18:11.613Z,37.60
2023-03-10T06:22:13.590Z,37.38
2023-03-10T06:26:17.273Z,37.90
2023-03-10T06:30:19.535Z,37.83
2023-03-10T06:34:21.573Z,37.88
2023-03-10T06:38:23.314Z,42.28
2023-03-10T06:42:25.365Z,39.40
2023-03-10T06:46:28.807Z,39.22
2023-03-10T06:50:31.729Z,39.03
2023-03-10T06:54:33.743Z,39.60
2023-03-10T06:58:36.957Z,38.80
2023-03-10T07:02:39.054Z,36.83
2023-03-10T07:06:41.425Z,39.88
2023-03-10T07:10:43.687Z,40.53
2023-03-10T07:14:45.640Z,40.22
2023-03-10T07:18:47.674Z,35.33
2023-03-10T07:22:49.860Z,37.80
2023-03-10T07:26:51.773Z,40.22
2023-03-10T07:30:54.992Z,38.60
2023-03-10T07:34:57.073Z,37.55
2023-03-10T07:38:59.115Z,41.00
2023-03-10T07:43:01.411Z,39.30
2023-03-10T07:47:04.421Z,37.88
2023-03-10T07:51:07.026Z,38.63
2023-03-10T07:55:09.533Z,39.70
2023-03-10T07:59:11.582Z,38.92
2023-03-10T08:03:13.542Z,41.35
2023-03-10T08:07:15.591Z,38.85
2023-03-10T08:11:18.160Z,38.65
2023-03-10T08:15:20.289Z,41.70
2023-03-10T08:19:23.724Z,40.58
2023-03-10T08:23:26.060Z,42.28
2023-03-10T08:27:29.204Z,43.60
2023-03-10T08:31:31.349Z,47.33
2023-03-10T08:35:33.400Z,48.95
2023-03-10T08:39:35.564Z,47.88
2023-03-10T08:43:37.994Z,52.92
2023-03-10T08:47:40.002Z,51.00
2023-03-10T08:51:43.080Z,52.53
2023-03-10T08:55:45.033Z,54.42
2023-03-10T08:59:47.033Z,57.25
2023-03-10T09:03:50.271Z,50.95
2023-03-10T09:07:52.315Z,55.42
2023-03-10T09:11:54.335Z,53.70
2023-03-10T09:15:56.437Z,55.00
2023-03-10T09:19:58.542Z,51.88
2023-03-10T09:24:00.861Z,56.13
2023-03-10T09:28:02.869Z,53.00
2023-03-10T09:32:07.014Z,55.42
2023-03-10T09:36:10.882Z,54.33
2023-03-10T09:40:18.836Z,50.22
2023-03-10T09:44:47.246Z,50.97
2023-03-10T09:49:18.279Z,50.93
2023-03-10T09:53:38.916Z,53.55
2023-03-10T09:57:41.356Z,51.45
2023-03-10T10:01:48.020Z,51.28
2023-03-10T10:05:53.261Z,48.50
2023-03-10T10:10:14.031Z,53.15
2023-03-10T10:14:38.419Z,50.60
2023-03-10T10:18:47.689Z,50.42
2023-03-10T10:22:49.938Z,48.75
2023-03-10T10:26:52.057Z,47.70
2023-03-10T10:31:10.612Z,46.63
2023-03-10T10:35:15.349Z,48.28
2023-03-10T10:39:28.313Z,49.10
2023-03-10T10:43:31.163Z,47.08
2023-03-10T10:47:34.716Z,46.92
2023-03-10T10:51:37.846Z,45.42
2023-03-10T10:55:41.615Z,47.13
2023-03-10T10:59:43.639Z,43.85
2023-03-10T11:03:49.048Z,44.33
2023-03-10T11:07:52.150Z,39.42
2023-03-10T11:12:26.838Z,42.78
2023-03-10T11:16:40.345Z,40.20
2023-03-10T11:20:54.848Z,40.10
2023-03-10T11:25:08.393Z,39.97
2023-03-10T11:29:31.549Z,34.95
2023-03-10T11:34:14.446Z,35.65
2023-03-10T11:38:28.872Z,35.10
2023-03-10T11:42:43.097Z,34.55
2023-03-10T11:47:20.886Z,32.92
2023-03-10T11:51:43.604Z,32.53
2023-03-10T11:55:45.808Z,32.80
2023-03-10T11:59:56.821Z,31.27
2023-03-10T12:04:08.408Z,33.47
2023-03-10T12:08:12.594Z,32.28
2023-03-10T12:12:20.389Z,33.80
2023-03-10T12:16:25.554Z,30.93
2023-03-10T12:20:30.300Z,28.05
2023-03-10T12:24:44.383Z,28.98
2023-03-10T12:28:46.552Z,25.98
2023-03-10T12:32:48.575Z,26.60
2023-03-10T12:37:02.279Z,26.63
2023-03-10T12:41:04.565Z,22.10
2023-03-10T12:45:17.307Z,16.30
2023-03-10T12:49:37.427Z,15.07
2023-03-10T12:53:54.059Z,16.42
2023-03-10T12:58:05.357Z,15.18
2023-03-10T13:02:34.116Z,11.85
2023-03-10T13:06:40.774Z,11.50
2023-03-10T13:10:43.215Z,11.80
2023-03-10T13:14:45.455Z,12.32
2023-03-10T13:18:49.559Z,9.90
2023-03-10T13:22:56.374Z,10.77
2023-03-10T13:27:06.477Z,10.05
2023-03-10T13:31:18.405Z,10.00
2023-03-10T13:35:30.628Z,11.57
2023-03-10T13:39:33.554Z,16.25
2023-03-10T13:43:42.848Z,11.20
2023-03-10T13:47:45.065Z,9.70
2023-03-10T13:51:59.165Z,8.95
2023-03-10T13:56:15.463Z,7.88
2023-03-10T14:00:20.763Z,7.70
2023-03-10T14:04:52.683Z,8.15
2023-03-10T14:08:55.222Z,8.15
2023-03-10T14:12:57.238Z,11.70
2023-03-10T14:17:03.920Z,22.92
2023-03-10T14:21:33.644Z,16.70
2023-03-10T14:29:37.693Z,9.20
2023-03-10T14:33:41.907Z,10.32
2023-03-10T14:37:44.354Z,11.85
2023-03-10T14:41:47.497Z,12.07
2023-03-10T14:45:52.365Z,13.85
2023-03-10T14:49:54.643Z,10.10
2023-03-10T14:53:56.611Z,9.98
2023-03-10T14:58:01.396Z,10.02
2023-03-10T15:02:14.316Z,8.90
2023-03-10T15:06:18.989Z,9.32
2023-03-10T15:10:22.826Z,9.20
2023-03-10T15:14:24.889Z,9.70
2023-03-10T15:18:27.165Z,9.20
2023-03-10T15:22:29.156Z,9.10
2023-03-10T15:26:31.161Z,8.27
2023-03-10T15:30:35.757Z,8.77
2023-03-10T15:34:37.760Z,8.27
2023-03-10T15:38:39.768Z,6.50
2023-03-10T15:42:43.112Z,6.63
2023-03-10T15:46:46.243Z,6.78
2023-03-10T15:50:48.397Z,26.77
2023-03-10T15:54:50.533Z,23.70
2023-03-10T15:58:52.736Z,17.25
2023-03-10T16:02:55.023Z,7.07
2023-03-10T16:06:57.076Z,15.48
2023-03-10T16:10:59.142Z,7.10
2023-03-10T16:15:01.301Z,6.63
2023-03-10T16:19:03.459Z,6.97
2023-03-10T16:23:05.415Z,6.97
2023-03-10T16:27:07.576Z,11.77
2023-03-10T16:31:11.060Z,11.40
2023-03-10T16:35:13.461Z,12.88
2023-03-10T16:39:17.897Z,12.75
2023-03-10T16:43:21.849Z,11.10
2023-03-10T16:47:24.303Z,10.38
2023-03-10T16:51:38.061Z,8.30
2023-03-10T16:55:40.243Z,6.45
2023-03-10T16:59:43.186Z,8.02
2023-03-10T17:03:45.292Z,7.38
2023-03-10T17:07:55.522Z,7.25
2023-03-10T17:11:57.869Z,8.00
2023-03-10T17:16:00.670Z,8.38
2023-03-10T17:20:04.570Z,11.55
2023-03-10T17:24:08.061Z,11.13
2023-03-10T17:28:10.531Z,10.57
2023-03-10T17:32:13.011Z,10.88
2023-03-10T17:36:16.680Z,11.73
2023-03-10T17:40:21.642Z,12.13
2023-03-10T17:44:24.124Z,13.70
2023-03-10T17:48:27.104Z,14.63
2023-03-10T17:52:29.383Z,14.00
2023-03-10T17:56:31.591Z,16.35
2023-03-10T18:00:33.542Z,15.80
2023-03-10T18:04:35.859Z,15.80
2023-03-10T18:08:37.803Z,14.20
2023-03-10T18:12:39.847Z,16.05
2023-03-10T18:16:42.027Z,15.13
2023-03-10T18:20:44.061Z,15.18
2023-03-10T18:24:46.065Z,17.85
2023-03-10T18:28:48.328Z,15.63
2023-03-10T18:32:50.789Z,18.83
2023-03-10T18:36:53.027Z,17.85
2023-03-10T18:41:00.120Z,19.45
2023-03-10T18:45:02.274Z,25.23
2023-03-10T18:49:04.351Z,24.38
2023-03-10T18:53:06.256Z,32.10
2023-03-10T18:57:08.516Z,32.70
2023-03-10T19:01:12.424Z,33.15
2023-03-10T19:05:15.614Z,36.78
2023-03-10T19:09:20.245Z,36.13
2023-03-10T19:13:23.351Z,38.22
2023-03-10T19:17:28.882Z,40.45
2023-03-10T19:21:31.401Z,38.33
2023-03-10T19:25:33.431Z,43.05
2023-03-10T19:29:35.728Z,42.28
2023-03-10T19:33:39.867Z,45.20
2023-03-10T19:37:43.523Z,38.38
2023-03-10T19:41:45.806Z,38.30
2023-03-10T19:45:47.779Z,38.83
2023-03-10T19:49:49.823Z,40.65
2023-03-10T19:53:53.475Z,43.25
2023-03-10T19:57:56.143Z,46.75
2023-03-10T20:02:01.578Z,52.80
2023-03-10T20:06:05.126Z,59.30
2023-03-10T20:10:08.166Z,59.63
2023-03-10T20:14:11.246Z,63.60
2023-03-10T20:18:13.216Z,63.88
2023-03-10T20:22:18.496Z,61.13
2023-03-10T20:26:20.639Z,60.83
2023-03-10T20:30:28.447Z,61.00
2023-03-10T20:34:30.889Z,56.77
2023-03-10T20:38:32.471Z,56.92
2023-03-10T20:42:34.460Z,60.33
2023-03-10T20:46:36.470Z,58.08
2023-03-10T20:50:39.106Z,58.53
2023-03-10T20:54:41.298Z,58.38
2023-03-10T20:58:43.434Z,63.90
2023-03-10T21:02:46.932Z,57.10
2023-03-10T21:06:48.992Z,58.88
2023-03-10T21:10:51.731Z,59.00
2023-03-10T21:14:54.352Z,62.33
2023-03-10T21:18:56.378Z,59.05
2023-03-10T21:22:58.580Z,59.60
2023-03-10T21:27:01.150Z,55.33
2023-03-10T21:31:02.865Z,53.60
2023-03-10T21:35:05.836Z,48.78
2023-03-10T21:39:08.948Z,48.13
2023-03-10T21:43:11.384Z,48.40
2023-03-10T21:47:13.544Z,55.45
2023-03-10T21:51:19.454Z,55.97
2023-03-10T21:55:24.174Z,55.30
2023-03-10T21:59:26.153Z,54.28
2023-03-10T22:03:28.196Z,53.47
2023-03-10T22:07:30.238Z,49.35
2023-03-10T22:11:32.608Z,46.83
2023-03-10T22:15:34.578Z,40.92
2023-03-10T22:19:36.580Z,40.13
2023-03-10T22:23:38.716Z,38.40
2023-03-10T22:27:40.789Z,38.03
2023-03-10T22:31:42.857Z,38.15
2023-03-10T22:35:51.311Z,37.25
2023-03-10T22:39:53.994Z,37.47
2023-03-10T22:43:56.531Z,35.35
2023-03-10T22:48:01.451Z,33.28
2023-03-10T22:52:06.987Z,28.33
2023-03-10T22:56:09.117Z,27.40
2023-03-10T23:00:15.147Z,27.83
2023-03-10T23:04:17.190Z,26.52
2023-03-10T23:08:19.257Z,25.70
2023-03-10T23:12:21.361Z,28.45
2023-03-10T23:16:23.752Z,26.48
2023-03-10T23:20:28.909Z,30.08
2023-03-10T23:24:30.827Z,30.50
2023-03-10T23:28:32.791Z,29.27
2023-03-10T23:32:34.754Z,30.02
2023-03-10T23:36:36.828Z,28.20
2023-03-10T23:40:38.785Z,30.52
2023-03-10T23:44:41.321Z,27.45
2023-03-10T23:48:43.240Z,30.73
2023-03-10T23:52:45.358Z,29.17
2023-03-10T23:56:47.113Z,29.35
